createdAt,value
2022-09-12T00:01:08.034Z,2.00
2022-09-12T00:06:01.235Z,2.20
2022-09-12T00:10:55.794Z,1.60
2022-09-12T00:15:48.927Z,1.70
2022-09-12T00:20:43.548Z,2.00
2022-09-12T00:25:41.857Z,1.80
2022-09-12T00:30:36.336Z,1.83
2022-09-12T00:35:29.493Z,1.52
2022-09-12T00:40:23.348Z,1.60
2022-09-12T00:45:24.660Z,1.75
2022-09-12T00:50:19.756Z,1.70
2022-09-12T00:55:16.727Z,1.75
2022-09-12T01:00:15.168Z,1.73
2022-09-12T01:05:09.821Z,1.67
2022-09-12T01:10:06.717Z,1.60
2022-09-12T01:15:00.794Z,1.63
2022-09-12T01:20:30.698Z,1.70
2022-09-12T01:25:32.485Z,1.90
2022-09-12T01:30:43.718Z,2.35
2022-09-12T01:35:46.069Z,1.80
2022-09-12T01:40:49.268Z,1.60
2022-09-12T01:45:47.143Z,1.77
2022-09-12T01:50:47.805Z,1.40
2022-09-12T01:55:45.291Z,1.45
2022-09-12T02:00:45.923Z,1.70
2022-09-12T02:05:44.520Z,1.60
2022-09-12T02:10:45.122Z,1.60
2022-09-12T02:15:41.519Z,2.00
2022-09-12T02:20:54.624Z,1.52
2022-09-12T02:25:52.575Z,1.73
2022-09-12T02:30:54.238Z,1.70
2022-09-12T02:35:54.387Z,1.65
2022-09-12T02:40:47.578Z,1.63
2022-09-12T02:45:41.011Z,1.85
2022-09-12T02:50:34.530Z,1.85
2022-09-12T02:55:32.213Z,1.63
2022-09-12T03:00:26.343Z,2.10
2022-09-12T03:05:30.651Z,2.17
2022-09-12T03:10:33.160Z,2.33
2022-09-12T03:15:44.319Z,1.70
2022-09-12T03:20:47.355Z,2.60
2022-09-12T03:25:48.455Z,2.10
2022-09-12T03:30:43.246Z,2.15
2022-09-12T03:35:36.513Z,2.05
2022-09-12T03:40:29.641Z,2.08
2022-09-12T03:45:24.142Z,2.47
2022-09-12T03:50:18.155Z,2.35
2022-09-12T03:55:15.584Z,2.20
2022-09-12T04:00:17.693Z,1.95
2022-09-12T04:05:14.840Z,2.67
2022-09-12T04:10:11.153Z,2.35
2022-09-12T04:15:05.335Z,2.20
2022-09-12T04:19:58.527Z,2.50
2022-09-12T04:24:53.062Z,2.20
2022-09-12T04:29:46.339Z,2.30
2022-09-12T04:34:39.745Z,2.60
2022-09-12T04:39:32.882Z,2.35
2022-09-12T04:44:27.486Z,2.80
2022-09-12T04:49:20.851Z,2.67
2022-09-12T04:54:17.462Z,2.53
2022-09-12T04:59:12.095Z,2.60
2022-09-12T05:04:07.044Z,2.55
2022-09-12T05:09:02.029Z,2.65
2022-09-12T05:13:55.561Z,2.47
2022-09-12T05:18:49.120Z,2.38
2022-09-12T05:23:44.177Z,2.53
2022-09-12T05:28:40.579Z,2.40
2022-09-12T05:33:34.886Z,2.58
2022-09-12T05:38:29.181Z,2.15
2022-09-12T05:43:26.553Z,2.45
2022-09-12T05:48:19.763Z,2.38
2022-09-12T05:53:16.032Z,2.45
2022-09-12T05:58:09.752Z,2.42
2022-09-12T06:03:06.951Z,2.15
2022-09-12T06:08:00.092Z,2.33
2022-09-12T06:12:54.028Z,2.08
2022-09-12T06:17:51.506Z,2.50
2022-09-12T06:22:46.319Z,2.35
2022-09-12T06:27:39.389Z,2.35
2022-09-12T06:32:32.719Z,2.20
2022-09-12T06:37:26.430Z,2.10
2022-09-12T06:42:21.101Z,1.90
2022-09-12T06:47:23.851Z,1.83
2022-09-12T06:52:18.149Z,2.30
2022-09-12T06:57:11.252Z,2.15
2022-09-12T07:02:05.889Z,2.00
2022-09-12T07:06:59.661Z,2.15
2022-09-12T07:11:53.214Z,2.00
2022-09-12T07:16:46.350Z,1.92
2022-09-12T07:21:41.584Z,2.08
2022-09-12T07:26:35.722Z,2.08
2022-09-12T07:31:30.138Z,1.90
2022-09-12T07:36:25.521Z,2.05
2022-09-12T07:41:23.416Z,2.08
2022-09-12T07:46:16.845Z,2.00
2022-09-12T07:51:12.551Z,2.00
2022-09-12T07:56:14.529Z,1.90
2022-09-12T08:01:12.927Z,2.15
2022-09-12T08:06:06.996Z,2.10
2022-09-12T08:11:02.642Z,2.30
2022-09-12T08:15:59.858Z,2.03
2022-09-12T08:20:59.383Z,1.75
2022-09-12T08:25:53.654Z,2.55
2022-09-12T08:30:46.911Z,1.83
2022-09-12T08:35:40.100Z,2.00
2022-09-12T08:40:51.875Z,1.95
2022-09-12T08:45:58.115Z,2.08
2022-09-12T08:50:54.722Z,2.10
2022-09-12T08:55:55.059Z,2.00
2022-09-12T09:01:10.145Z,2.08
2022-09-12T09:06:14.254Z,2.78
2022-09-12T09:11:23.839Z,2.00
2022-09-12T09:16:25.763Z,2.38
2022-09-12T09:21:24.954Z,1.88
2022-09-12T09:26:26.816Z,1.85
2022-09-12T09:31:25.655Z,2.58
2022-09-12T09:36:24.117Z,2.30
2022-09-12T09:41:43.891Z,2.80
2022-09-12T09:46:37.340Z,2.63
2022-09-12T09:51:35.813Z,2.80
2022-09-12T09:56:33.937Z,1.70
2022-09-12T10:01:30.564Z,1.73
2022-09-12T10:06:32.518Z,1.50
2022-09-12T10:11:33.834Z,1.63
2022-09-12T10:16:29.055Z,1.45
2022-09-12T10:21:34.866Z,1.75
2022-09-12T10:26:34.077Z,1.40
2022-09-12T10:36:23.777Z,1.20
2022-09-12T10:41:17.176Z,1.70
2022-09-12T10:46:33.677Z,1.45
2022-09-12T10:51:30.527Z,1.38
2022-09-12T10:56:30.680Z,1.50
2022-09-12T11:01:40.397Z,1.58
2022-09-12T11:06:50.690Z,1.58
2022-09-12T11:11:58.828Z,2.08
2022-09-12T11:17:04.319Z,1.58
2022-09-12T11:22:21.306Z,1.73
2022-09-12T11:27:29.462Z,1.63
2022-09-12T11:32:49.419Z,1.35
2022-09-12T11:37:57.306Z,1.50
2022-09-12T11:42:53.956Z,1.60
2022-09-12T11:47:56.442Z,1.70
2022-09-12T11:52:51.619Z,1.23
2022-09-12T11:57:46.929Z,1.50
2022-09-12T12:02:49.497Z,1.23
2022-09-12T12:07:52.408Z,1.55
2022-09-12T12:12:45.699Z,1.02
2022-09-12T12:17:40.238Z,1.00
2022-09-12T12:22:33.839Z,0.95
2022-09-12T12:27:47.509Z,1.45
2022-09-12T12:32:40.695Z,1.10
2022-09-12T12:37:58.363Z,1.38
2022-09-12T12:43:04.800Z,1.08
2022-09-12T12:48:04.053Z,1.02
2022-09-12T12:53:05.367Z,1.17
2022-09-12T12:58:01.675Z,1.25
2022-09-12T13:02:59.860Z,1.00
2022-09-12T13:07:57.715Z,0.90
2022-09-12T13:12:54.451Z,0.70
2022-09-12T13:17:52.146Z,0.80
2022-09-12T13:22:50.092Z,1.40
2022-09-12T13:28:01.709Z,0.65
2022-09-12T13:32:59.509Z,1.45
2022-09-12T13:38:00.218Z,1.27
2022-09-12T13:43:07.224Z,1.10
2022-09-12T13:48:04.574Z,1.50
2022-09-12T13:53:01.610Z,1.60
2022-09-12T13:57:59.892Z,1.52
2022-09-12T14:03:14.363Z,3.80
2022-09-12T14:08:10.542Z,1.58
2022-09-12T14:13:12.023Z,1.83
2022-09-12T14:18:08.894Z,1.42
2022-09-12T14:23:04.851Z,1.40
2022-09-12T14:28:00.348Z,1.92
2022-09-12T14:33:18.131Z,1.67
2022-09-12T14:38:25.827Z,1.50
2022-09-12T14:43:40.883Z,1.40
2022-09-12T14:48:37.561Z,1.40
2022-09-12T14:53:38.619Z,1.80
2022-09-12T14:58:33.743Z,1.73
2022-09-12T15:03:33.174Z,1.60
2022-09-12T15:08:27.315Z,1.42
2022-09-12T15:13:25.975Z,1.60
2022-09-12T15:18:21.542Z,1.73
2022-09-12T15:23:32.311Z,2.13
2022-09-12T15:28:26.980Z,1.90
2022-09-12T15:33:24.848Z,2.17
2022-09-12T15:38:21.050Z,2.28
2022-09-12T15:43:20.397Z,1.98
2022-09-12T15:48:15.776Z,2.00
2022-09-12T15:53:16.351Z,1.90
2022-09-12T15:58:10.327Z,2.00
2022-09-12T16:03:03.751Z,1.70
2022-09-12T16:08:02.181Z,2.10
2022-09-12T16:12:57.985Z,2.45
2022-09-12T16:17:52.391Z,2.08
2022-09-12T16:22:49.614Z,1.98
2022-09-12T16:27:47.798Z,1.90
2022-09-12T16:32:42.694Z,1.60
2022-09-12T16:37:40.540Z,2.33
2022-09-12T16:42:41.821Z,2.42
2022-09-12T16:47:39.518Z,2.75
2022-09-12T16:52:35.500Z,2.97
2022-09-12T17:02:36.098Z,3.05
2022-09-12T17:07:29.691Z,3.88
2022-09-12T17:12:24.790Z,3.20
2022-09-12T17:17:18.089Z,2.10
2022-09-12T17:22:11.325Z,2.90
2022-09-12T17:27:04.698Z,3.10
2022-09-12T17:31:59.692Z,2.40
2022-09-12T17:36:55.519Z,2.28
2022-09-12T17:41:51.443Z,2.60
2022-09-12T17:46:55.356Z,3.10
2022-09-12T17:51:55.173Z,2.92
2022-09-12T18:02:00.877Z,2.75
2022-09-12T18:07:00.506Z,3.35
2022-09-12T18:11:54.661Z,2.67
2022-09-12T18:16:50.781Z,3.00
2022-09-12T18:22:57.013Z,2.95
2022-09-12T18:29:15.331Z,2.80
2022-09-12T18:41:33.244Z,2.50
2022-09-12T18:46:31.660Z,2.85
2022-09-12T18:51:36.110Z,3.10
2022-09-12T18:56:32.971Z,3.50
2022-09-12T19:01:29.876Z,3.20
2022-09-12T19:06:46.762Z,3.70
2022-09-12T19:11:51.605Z,3.53
2022-09-12T19:16:50.909Z,8.27
2022-09-12T19:21:44.818Z,3.20
2022-09-12T19:26:39.038Z,3.13
2022-09-12T19:31:33.086Z,3.08
2022-09-12T19:36:44.348Z,3.00
2022-09-12T19:41:39.789Z,3.25
2022-09-12T19:46:33.364Z,3.83
2022-09-12T19:51:28.040Z,3.65
2022-09-12T19:56:22.691Z,4.05
2022-09-12T20:01:19.023Z,3.38
2022-09-12T20:06:14.600Z,3.15
2022-09-12T20:11:10.018Z,3.65
2022-09-12T20:16:21.289Z,4.15
2022-09-12T20:21:18.288Z,4.10
2022-09-12T20:26:15.200Z,3.70
2022-09-12T20:31:12.047Z,3.50
2022-09-12T20:36:10.853Z,3.60
2022-09-12T20:41:08.479Z,3.10
2022-09-12T20:46:06.604Z,2.88
2022-09-12T20:51:03.074Z,3.15
2022-09-12T20:55:56.403Z,2.72
2022-09-12T21:00:50.644Z,3.45
2022-09-12T21:05:46.071Z,3.08
2022-09-12T21:10:41.695Z,3.20
2022-09-12T21:15:35.188Z,3.00
2022-09-12T21:20:30.491Z,2.80
2022-09-12T21:25:25.517Z,2.80
2022-09-12T21:31:13.732Z,2.55
2022-09-12T21:36:29.502Z,2.67
2022-09-12T21:41:24.079Z,2.67
2022-09-12T21:46:18.725Z,2.53
2022-09-12T21:51:11.994Z,2.50
2022-09-12T21:56:07.197Z,2.90
2022-09-12T22:02:25.471Z,2.60
2022-09-12T22:08:11.154Z,2.70
2022-09-12T22:13:24.309Z,2.67
2022-09-12T22:18:17.269Z,3.00
2022-09-12T22:23:30.677Z,2.97
2022-09-12T22:28:24.605Z,3.22
2022-09-12T22:33:17.715Z,3.30
2022-09-12T22:38:12.021Z,3.42
2022-09-12T22:43:09.266Z,3.50
2022-09-12T22:48:05.058Z,3.45
2022-09-12T22:53:01.443Z,3.23
2022-09-12T22:57:55.763Z,3.13
2022-09-12T23:02:48.733Z,3.38
2022-09-12T23:07:41.802Z,2.92
2022-09-12T23:12:34.783Z,3.30
2022-09-12T23:17:29.049Z,3.55
2022-09-12T23:22:22.002Z,3.53
2022-09-12T23:27:15.059Z,3.55
2022-09-12T23:32:08.150Z,3.67
2022-09-12T23:37:03.286Z,3.75
2022-09-12T23:41:57.871Z,3.70
2022-09-12T23:46:50.768Z,3.53
2022-09-12T23:51:44.547Z,3.63
2022-09-12T23:56:38.908Z,3.97
